sensor_id;sensor_type;location;lat;lon;timestamp;P1;durP1;ratioP1;P2;durP2;ratioP2
1380;SDS011;684;48.342;10.096;2022-11-06T00:00:38;27.23;;;11.80;;
1380;SDS011;684;48.342;10.096;2022-11-06T00:03:06;32.83;;;10.93;;
1380;SDS011;684;48.342;10.096;2022-11-06T00:05:33;38.80;;;11.73;;
1380;SDS011;684;48.342;10.096;2022-11-06T00:08:27;34.30;;;12.27;;
1380;SDS011;684;48.342;10.096;2022-11-06T00:10:55;22.30;;;10.83;;
1380;SDS011;684;48.342;10.096;2022-11-06T00:13:22;17.17;;;10.90;;
1380;SDS011;684;48.342;10.096;2022-11-06T00:15:49;35.67;;;12.40;;
1380;SDS011;684;48.342;10.096;2022-11-06T00:18:16;18.63;;;11.83;;
1380;SDS011;684;48.342;10.096;2022-11-06T00:20:43;38.13;;;15.00;;
1380;SDS011;684;48.342;10.096;2022-11-06T00:23:10;19.13;;;11.73;;
1380;SDS011;684;48.342;10.096;2022-11-06T00:25:39;22.60;;;12.10;;
1380;SDS011;684;48.342;10.096;2022-11-06T00:28:06;17.50;;;11.50;;
1380;SDS011;684;48.342;10.096;2022-11-06T00:30:34;23.17;;;13.07;;
1380;SDS011;684;48.342;10.096;2022-11-06T00:33:00;19.23;;;12.60;;
1380;SDS011;684;48.342;10.096;2022-11-06T00:35:27;24.47;;;12.57;;
1380;SDS011;684;48.342;10.096;2022-11-06T00:37:54;25.77;;;13.00;;
1380;SDS011;684;48.342;10.096;2022-11-06T00:40:21;30.13;;;14.00;;
1380;SDS011;684;48.342;10.096;2022-11-06T00:42:53;27.50;;;13.40;;
1380;SDS011;684;48.342;10.096;2022-11-06T00:45:21;25.70;;;13.77;;
1380;SDS011;684;48.342;10.096;2022-11-06T00:47:48;21.43;;;14.00;;
1380;SDS011;684;48.342;10.096;2022-11-06T00:50:14;26.37;;;14.30;;
1380;SDS011;684;48.342;10.096;2022-11-06T00:52:42;28.73;;;14.27;;
1380;SDS011;684;48.342;10.096;2022-11-06T00:55:09;40.07;;;13.03;;
1380;SDS011;684;48.342;10.096;2022-11-06T00:57:36;26.90;;;12.90;;
1380;SDS011;684;48.342;10.096;2022-11-06T01:00:05;31.17;;;12.37;;
1380;SDS011;684;48.342;10.096;2022-11-06T01:02:32;34.60;;;12.30;;
1380;SDS011;684;48.342;10.096;2022-11-06T01:04:59;23.60;;;10.87;;
1380;SDS011;684;48.342;10.096;2022-11-06T01:07:26;38.33;;;11.50;;
1380;SDS011;684;48.342;10.096;2022-11-06T01:09:53;24.17;;;13.00;;
1380;SDS011;684;48.342;10.096;2022-11-06T01:12:19;31.70;;;11.30;;
1380;SDS011;684;48.342;10.096;2022-11-06T01:14:46;20.13;;;11.60;;
1380;SDS011;684;48.342;10.096;2022-11-06T01:17:14;18.20;;;10.87;;
1380;SDS011;684;48.342;10.096;2022-11-06T01:19:41;20.33;;;11.33;;
1380;SDS011;684;48.342;10.096;2022-11-06T01:22:08;17.00;;;10.17;;
1380;SDS011;684;48.342;10.096;2022-11-06T01:24:35;30.67;;;11.13;;
1380;SDS011;684;48.342;10.096;2022-11-06T01:27:02;20.67;;;10.80;;
1380;SDS011;684;48.342;10.096;2022-11-06T01:29:29;20.37;;;11.23;;
1380;SDS011;684;48.342;10.096;2022-11-06T01:31:55;18.83;;;9.63;;
1380;SDS011;684;48.342;10.096;2022-11-06T01:34:24;16.53;;;9.87;;
1380;SDS011;684;48.342;10.096;2022-11-06T01:36:51;17.43;;;9.73;;
1380;SDS011;684;48.342;10.096;2022-11-06T01:39:17;22.57;;;11.07;;
1380;SDS011;684;48.342;10.096;2022-11-06T01:41:45;21.60;;;9.70;;
1380;SDS011;684;48.342;10.096;2022-11-06T01:47:18;12.83;;;9.93;;
1380;SDS011;684;48.342;10.096;2022-11-06T01:49:48;16.20;;;9.93;;
1380;SDS011;684;48.342;10.096;2022-11-06T01:52:16;18.30;;;8.90;;
1380;SDS011;684;48.342;10.096;2022-11-06T01:54:45;17.37;;;7.83;;
1380;SDS011;684;48.342;10.096;2022-11-06T01:57:17;18.37;;;8.67;;
1380;SDS011;684;48.342;10.096;2022-11-06T01:59:44;14.70;;;9.17;;
1380;SDS011;684;48.342;10.096;2022-11-06T02:02:11;26.00;;;10.83;;
1380;SDS011;684;48.342;10.096;2022-11-06T02:04:42;22.07;;;9.50;;
1380;SDS011;684;48.342;10.096;2022-11-06T02:07:11;24.63;;;10.67;;
1380;SDS011;684;48.342;10.096;2022-11-06T02:09:38;17.00;;;10.87;;
1380;SDS011;684;48.342;10.096;2022-11-06T02:12:07;19.80;;;10.00;;
1380;SDS011;684;48.342;10.096;2022-11-06T02:14:45;21.93;;;11.23;;
1380;SDS011;684;48.342;10.096;2022-11-06T02:17:24;18.03;;;9.93;;
1380;SDS011;684;48.342;10.096;2022-11-06T02:20:04;39.13;;;10.63;;
1380;SDS011;684;48.342;10.096;2022-11-06T02:22:51;28.90;;;11.03;;
1380;SDS011;684;48.342;10.096;2022-11-06T02:25:32;42.37;;;13.30;;
1380;SDS011;684;48.342;10.096;2022-11-06T02:28:07;31.93;;;12.47;;
1380;SDS011;684;48.342;10.096;2022-11-06T02:30:39;35.50;;;12.13;;
1380;SDS011;684;48.342;10.096;2022-11-06T02:33:11;28.13;;;9.30;;
1380;SDS011;684;48.342;10.096;2022-11-06T02:35:42;30.97;;;8.30;;
1380;SDS011;684;48.342;10.096;2022-11-06T02:38:13;36.03;;;9.77;;
1380;SDS011;684;48.342;10.096;2022-11-06T02:40:45;48.63;;;10.53;;
1380;SDS011;684;48.342;10.096;2022-11-06T02:43:16;26.27;;;9.63;;
1380;SDS011;684;48.342;10.096;2022-11-06T02:45:46;28.50;;;9.10;;
1380;SDS011;684;48.342;10.096;2022-11-06T02:48:16;30.03;;;9.47;;
1380;SDS011;684;48.342;10.096;2022-11-06T02:50:47;26.37;;;10.40;;
1380;SDS011;684;48.342;10.096;2022-11-06T02:53:17;23.43;;;9.93;;
1380;SDS011;684;48.342;10.096;2022-11-06T02:55:48;24.10;;;8.17;;
1380;SDS011;684;48.342;10.096;2022-11-06T02:58:19;23.97;;;9.00;;
1380;SDS011;684;48.342;10.096;2022-11-06T03:00:51;29.23;;;9.10;;
1380;SDS011;684;48.342;10.096;2022-11-06T03:03:24;36.07;;;9.53;;
1380;SDS011;684;48.342;10.096;2022-11-06T03:05:53;14.87;;;8.17;;
1380;SDS011;684;48.342;10.096;2022-11-06T03:08:25;22.03;;;8.20;;
1380;SDS011;684;48.342;10.096;2022-11-06T03:10:57;22.33;;;8.80;;
1380;SDS011;684;48.342;10.096;2022-11-06T03:13:34;25.80;;;7.60;;
1380;SDS011;684;48.342;10.096;2022-11-06T03:16:11;22.43;;;8.93;;
1380;SDS011;684;48.342;10.096;2022-11-06T03:18:56;37.83;;;8.73;;
1380;SDS011;684;48.342;10.096;2022-11-06T03:21:29;28.70;;;8.77;;
1380;SDS011;684;48.342;10.096;2022-11-06T03:24:02;22.70;;;8.87;;
1380;SDS011;684;48.342;10.096;2022-11-06T03:26:36;26.37;;;9.10;;
1380;SDS011;684;48.342;10.096;2022-11-06T03:29:11;32.30;;;8.33;;
1380;SDS011;684;48.342;10.096;2022-11-06T03:31:43;19.67;;;9.40;;
1380;SDS011;684;48.342;10.096;2022-11-06T03:34:16;69.13;;;9.80;;
1380;SDS011;684;48.342;10.096;2022-11-06T03:36:48;31.70;;;8.07;;
1380;SDS011;684;48.342;10.096;2022-11-06T03:39:22;42.33;;;9.13;;
1380;SDS011;684;48.342;10.096;2022-11-06T03:41:54;60.50;;;10.43;;
1380;SDS011;684;48.342;10.096;2022-11-06T03:44:27;34.40;;;8.70;;
1380;SDS011;684;48.342;10.096;2022-11-06T03:46:58;39.57;;;8.63;;
1380;SDS011;684;48.342;10.096;2022-11-06T03:49:28;45.27;;;7.93;;
1380;SDS011;684;48.342;10.096;2022-11-06T03:52:01;64.90;;;8.77;;
1380;SDS011;684;48.342;10.096;2022-11-06T03:54:33;23.90;;;7.30;;
1380;SDS011;684;48.342;10.096;2022-11-06T03:57:06;25.30;;;7.63;;
1380;SDS011;684;48.342;10.096;2022-11-06T03:59:40;48.47;;;8.30;;
1380;SDS011;684;48.342;10.096;2022-11-06T04:02:11;16.23;;;7.20;;
1380;SDS011;684;48.342;10.096;2022-11-06T04:04:40;29.63;;;7.20;;
1380;SDS011;684;48.342;10.096;2022-11-06T04:07:12;45.83;;;7.80;;
1380;SDS011;684;48.342;10.096;2022-11-06T04:09:43;32.20;;;6.63;;
1380;SDS011;684;48.342;10.096;2022-11-06T04:12:33;37.70;;;7.80;;
1380;SDS011;684;48.342;10.096;2022-11-06T04:15:21;19.80;;;6.70;;
1380;SDS011;684;48.342;10.096;2022-11-06T04:17:49;34.70;;;7.30;;
1380;SDS011;684;48.342;10.096;2022-11-06T04:20:16;41.60;;;8.07;;
1380;SDS011;684;48.342;10.096;2022-11-06T04:23:00;22.63;;;7.73;;
1380;SDS011;684;48.342;10.096;2022-11-06T04:25:40;24.13;;;8.30;;
1380;SDS011;684;48.342;10.096;2022-11-06T04:28:36;23.57;;;7.93;;
1380;SDS011;684;48.342;10.096;2022-11-06T04:31:11;25.83;;;7.50;;
1380;SDS011;684;48.342;10.096;2022-11-06T04:33:44;27.57;;;8.33;;
1380;SDS011;684;48.342;10.096;2022-11-06T04:36:20;28.40;;;7.70;;
1380;SDS011;684;48.342;10.096;2022-11-06T04:38:53;26.00;;;8.20;;
1380;SDS011;684;48.342;10.096;2022-11-06T04:41:26;49.77;;;7.97;;
1380;SDS011;684;48.342;10.096;2022-11-06T04:44:00;17.03;;;6.17;;
1380;SDS011;684;48.342;10.096;2022-11-06T04:46:31;26.37;;;7.63;;
1380;SDS011;684;48.342;10.096;2022-11-06T04:49:01;17.90;;;6.50;;
1380;SDS011;684;48.342;10.096;2022-11-06T04:51:32;18.80;;;5.80;;
1380;SDS011;684;48.342;10.096;2022-11-06T04:54:02;18.87;;;7.20;;
1380;SDS011;684;48.342;10.096;2022-11-06T04:56:31;17.77;;;6.90;;
1380;SDS011;684;48.342;10.096;2022-11-06T04:59:00;37.83;;;8.20;;
1380;SDS011;684;48.342;10.096;2022-11-06T05:01:27;13.00;;;7.07;;
1380;SDS011;684;48.342;10.096;2022-11-06T05:03:55;20.63;;;7.10;;
1380;SDS011;684;48.342;10.096;2022-11-06T05:06:22;31.23;;;6.90;;
1380;SDS011;684;48.342;10.096;2022-11-06T05:08:49;16.83;;;7.27;;
1380;SDS011;684;48.342;10.096;2022-11-06T05:11:15;42.33;;;8.07;;
1380;SDS011;684;48.342;10.096;2022-11-06T05:13:42;29.50;;;8.33;;
1380;SDS011;684;48.342;10.096;2022-11-06T05:16:09;28.67;;;7.23;;
1380;SDS011;684;48.342;10.096;2022-11-06T05:18:36;24.53;;;7.20;;
1380;SDS011;684;48.342;10.096;2022-11-06T05:21:04;17.30;;;7.50;;
1380;SDS011;684;48.342;10.096;2022-11-06T05:23:51;40.63;;;7.80;;
1380;SDS011;684;48.342;10.096;2022-11-06T05:26:17;39.87;;;9.47;;
1380;SDS011;684;48.342;10.096;2022-11-06T05:28:44;20.50;;;8.30;;
1380;SDS011;684;48.342;10.096;2022-11-06T05:31:11;19.97;;;7.40;;
1380;SDS011;684;48.342;10.096;2022-11-06T05:33:38;59.90;;;8.33;;
1380;SDS011;684;48.342;10.096;2022-11-06T05:36:06;20.20;;;7.10;;
1380;SDS011;684;48.342;10.096;2022-11-06T05:38:33;42.53;;;7.90;;
1380;SDS011;684;48.342;10.096;2022-11-06T05:41:01;19.73;;;7.80;;
1380;SDS011;684;48.342;10.096;2022-11-06T05:43:27;27.97;;;8.17;;
1380;SDS011;684;48.342;10.096;2022-11-06T05:45:54;36.87;;;8.67;;
1380;SDS011;684;48.342;10.096;2022-11-06T05:48:21;39.80;;;8.53;;
1380;SDS011;684;48.342;10.096;2022-11-06T05:50:48;28.23;;;8.90;;
1380;SDS011;684;48.342;10.096;2022-11-06T05:53:16;29.00;;;8.07;;
1380;SDS011;684;48.342;10.096;2022-11-06T05:55:44;31.20;;;7.37;;
1380;SDS011;684;48.342;10.096;2022-11-06T05:58:11;20.23;;;6.97;;
1380;SDS011;684;48.342;10.096;2022-11-06T06:00:38;49.43;;;8.63;;
1380;SDS011;684;48.342;10.096;2022-11-06T06:03:04;17.93;;;6.60;;
1380;SDS011;684;48.342;10.096;2022-11-06T06:05:31;28.27;;;8.20;;
1380;SDS011;684;48.342;10.096;2022-11-06T06:07:58;28.03;;;8.00;;
1380;SDS011;684;48.342;10.096;2022-11-06T06:10:26;44.80;;;7.70;;
1380;SDS011;684;48.342;10.096;2022-11-06T06:12:53;22.37;;;7.53;;
1380;SDS011;684;48.342;10.096;2022-11-06T06:15:19;30.67;;;8.37;;
1380;SDS011;684;48.342;10.096;2022-11-06T06:17:46;17.67;;;7.40;;
1380;SDS011;684;48.342;10.096;2022-11-06T06:20:13;23.83;;;9.00;;
1380;SDS011;684;48.342;10.096;2022-11-06T06:22:40;15.97;;;8.27;;
1380;SDS011;684;48.342;10.096;2022-11-06T06:25:07;23.17;;;8.97;;
1380;SDS011;684;48.342;10.096;2022-11-06T06:27:35;19.67;;;8.10;;
1380;SDS011;684;48.342;10.096;2022-11-06T06:30:02;23.60;;;7.63;;
1380;SDS011;684;48.342;10.096;2022-11-06T06:32:30;43.83;;;8.20;;
1380;SDS011;684;48.342;10.096;2022-11-06T06:34:57;22.50;;;8.23;;
1380;SDS011;684;48.342;10.096;2022-11-06T06:37:23;24.43;;;7.60;;
1380;SDS011;684;48.342;10.096;2022-11-06T06:39:50;23.63;;;7.67;;
1380;SDS011;684;48.342;10.096;2022-11-06T06:42:17;19.13;;;8.17;;
1380;SDS011;684;48.342;10.096;2022-11-06T06:44:45;28.60;;;8.60;;
1380;SDS011;684;48.342;10.096;2022-11-06T06:47:12;17.23;;;7.70;;
1380;SDS011;684;48.342;10.096;2022-11-06T06:49:40;51.97;;;8.10;;
1380;SDS011;684;48.342;10.096;2022-11-06T06:52:07;26.80;;;8.03;;
1380;SDS011;684;48.342;10.096;2022-11-06T06:54:34;20.00;;;9.07;;
1380;SDS011;684;48.342;10.096;2022-11-06T06:57:01;22.50;;;9.50;;
1380;SDS011;684;48.342;10.096;2022-11-06T06:59:28;26.17;;;8.90;;
1380;SDS011;684;48.342;10.096;2022-11-06T07:01:57;28.53;;;9.00;;
1380;SDS011;684;48.342;10.096;2022-11-06T07:04:23;22.33;;;8.80;;
1380;SDS011;684;48.342;10.096;2022-11-06T07:06:51;34.53;;;10.20;;
1380;SDS011;684;48.342;10.096;2022-11-06T07:09:18;32.20;;;8.93;;
1380;SDS011;684;48.342;10.096;2022-11-06T07:11:46;23.00;;;10.50;;
1380;SDS011;684;48.342;10.096;2022-11-06T07:14:13;24.27;;;8.70;;
1380;SDS011;684;48.342;10.096;2022-11-06T07:16:39;24.20;;;8.10;;
1380;SDS011;684;48.342;10.096;2022-11-06T07:19:07;27.73;;;7.63;;
1380;SDS011;684;48.342;10.096;2022-11-06T07:21:34;35.03;;;8.73;;
1380;SDS011;684;48.342;10.096;2022-11-06T07:24:01;33.07;;;9.53;;
1380;SDS011;684;48.342;10.096;2022-11-06T07:26:28;43.57;;;9.07;;
1380;SDS011;684;48.342;10.096;2022-11-06T07:28:55;40.50;;;9.23;;
1380;SDS011;684;48.342;10.096;2022-11-06T07:31:21;21.50;;;7.53;;
1380;SDS011;684;48.342;10.096;2022-11-06T07:33:48;20.47;;;7.80;;
1380;SDS011;684;48.342;10.096;2022-11-06T07:36:16;14.67;;;7.80;;
1380;SDS011;684;48.342;10.096;2022-11-06T07:38:43;33.60;;;9.00;;
1380;SDS011;684;48.342;10.096;2022-11-06T07:41:11;74.53;;;10.27;;
1380;SDS011;684;48.342;10.096;2022-11-06T07:43:39;73.53;;;9.60;;
1380;SDS011;684;48.342;10.096;2022-11-06T07:46:07;19.43;;;6.97;;
1380;SDS011;684;48.342;10.096;2022-11-06T07:48:36;19.07;;;7.37;;
1380;SDS011;684;48.342;10.096;2022-11-06T07:51:03;16.70;;;7.43;;
1380;SDS011;684;48.342;10.096;2022-11-06T07:53:33;16.23;;;6.60;;
1380;SDS011;684;48.342;10.096;2022-11-06T07:56:00;21.47;;;6.47;;
1380;SDS011;684;48.342;10.096;2022-11-06T07:58:27;9.43;;;5.50;;
1380;SDS011;684;48.342;10.096;2022-11-06T08:00:55;13.23;;;7.57;;
1380;SDS011;684;48.342;10.096;2022-11-06T08:03:23;14.83;;;6.27;;
1380;SDS011;684;48.342;10.096;2022-11-06T08:05:51;62.60;;;8.50;;
1380;SDS011;684;48.342;10.096;2022-11-06T08:08:17;46.70;;;7.20;;
1380;SDS011;684;48.342;10.096;2022-11-06T08:10:46;63.70;;;8.30;;
1380;SDS011;684;48.342;10.096;2022-11-06T08:13:16;34.40;;;6.83;;
1380;SDS011;684;48.342;10.096;2022-11-06T08:15:43;77.00;;;9.20;;
1380;SDS011;684;48.342;10.096;2022-11-06T08:18:10;20.30;;;5.87;;
1380;SDS011;684;48.342;10.096;2022-11-06T08:20:37;9.40;;;5.13;;
1380;SDS011;684;48.342;10.096;2022-11-06T08:23:05;38.60;;;7.27;;
1380;SDS011;684;48.342;10.096;2022-11-06T08:25:33;36.47;;;7.00;;
1380;SDS011;684;48.342;10.096;2022-11-06T08:28:01;10.57;;;6.37;;
1380;SDS011;684;48.342;10.096;2022-11-06T08:30:29;62.80;;;9.07;;
1380;SDS011;684;48.342;10.096;2022-11-06T08:32:58;68.50;;;8.03;;
1380;SDS011;684;48.342;10.096;2022-11-06T08:35:26;19.97;;;6.60;;
1380;SDS011;684;48.342;10.096;2022-11-06T08:37:53;12.30;;;6.17;;
1380;SDS011;684;48.342;10.096;2022-11-06T08:40:20;25.90;;;7.67;;
1380;SDS011;684;48.342;10.096;2022-11-06T08:42:47;16.67;;;6.77;;
1380;SDS011;684;48.342;10.096;2022-11-06T08:45:16;13.10;;;6.70;;
1380;SDS011;684;48.342;10.096;2022-11-06T08:47:42;41.10;;;8.60;;
1380;SDS011;684;48.342;10.096;2022-11-06T08:50:09;21.90;;;6.60;;
1380;SDS011;684;48.342;10.096;2022-11-06T08:52:36;17.43;;;6.90;;
1380;SDS011;684;48.342;10.096;2022-11-06T08:55:03;22.23;;;6.57;;
1380;SDS011;684;48.342;10.096;2022-11-06T08:57:31;33.30;;;7.57;;
1380;SDS011;684;48.342;10.096;2022-11-06T08:59:58;13.73;;;5.53;;
1380;SDS011;684;48.342;10.096;2022-11-06T09:02:26;9.87;;;6.10;;
1380;SDS011;684;48.342;10.096;2022-11-06T09:04:53;14.20;;;6.13;;
1380;SDS011;684;48.342;10.096;2022-11-06T09:07:19;22.73;;;6.97;;
1380;SDS011;684;48.342;10.096;2022-11-06T09:09:46;19.67;;;6.30;;
1380;SDS011;684;48.342;10.096;2022-11-06T09:12:13;24.30;;;5.60;;
1380;SDS011;684;48.342;10.096;2022-11-06T09:14:40;17.63;;;5.70;;
1380;SDS011;684;48.342;10.096;2022-11-06T09:17:06;40.83;;;8.50;;
1380;SDS011;684;48.342;10.096;2022-11-06T09:19:34;25.73;;;5.60;;
1380;SDS011;684;48.342;10.096;2022-11-06T09:22:01;17.80;;;5.20;;
1380;SDS011;684;48.342;10.096;2022-11-06T09:24:28;9.30;;;5.20;;
1380;SDS011;684;48.342;10.096;2022-11-06T09:26:55;13.40;;;5.37;;
1380;SDS011;684;48.342;10.096;2022-11-06T09:29:21;11.33;;;6.30;;
1380;SDS011;684;48.342;10.096;2022-11-06T09:31:49;25.93;;;6.87;;
1380;SDS011;684;48.342;10.096;2022-11-06T09:34:18;9.30;;;5.80;;
1380;SDS011;684;48.342;10.096;2022-11-06T09:36:46;26.43;;;7.70;;
1380;SDS011;684;48.342;10.096;2022-11-06T09:39:13;13.57;;;6.27;;
1380;SDS011;684;48.342;10.096;2022-11-06T09:41:43;13.17;;;6.50;;
1380;SDS011;684;48.342;10.096;2022-11-06T09:44:21;9.93;;;5.97;;
1380;SDS011;684;48.342;10.096;2022-11-06T09:47:02;9.70;;;6.10;;
1380;SDS011;684;48.342;10.096;2022-11-06T09:49:33;9.10;;;6.23;;
1380;SDS011;684;48.342;10.096;2022-11-06T09:52:05;12.67;;;6.20;;
1380;SDS011;684;48.342;10.096;2022-11-06T09:54:39;9.63;;;6.83;;
1380;SDS011;684;48.342;10.096;2022-11-06T09:57:10;14.90;;;6.00;;
1380;SDS011;684;48.342;10.096;2022-11-06T09:59:41;9.50;;;5.97;;
1380;SDS011;684;48.342;10.096;2022-11-06T10:02:14;9.60;;;6.33;;
1380;SDS011;684;48.342;10.096;2022-11-06T10:04:54;10.40;;;6.50;;
1380;SDS011;684;48.342;10.096;2022-11-06T10:07:29;10.30;;;6.70;;
1380;SDS011;684;48.342;10.096;2022-11-06T10:09:59;9.30;;;6.03;;
1380;SDS011;684;48.342;10.096;2022-11-06T10:12:34;9.90;;;5.90;;
1380;SDS011;684;48.342;10.096;2022-11-06T10:15:15;11.73;;;6.13;;
1380;SDS011;684;48.342;10.096;2022-11-06T10:17:49;12.03;;;7.63;;
1380;SDS011;684;48.342;10.096;2022-11-06T10:20:25;9.03;;;6.67;;
1380;SDS011;684;48.342;10.096;2022-11-06T10:23:01;10.43;;;6.60;;
1380;SDS011;684;48.342;10.096;2022-11-06T10:25:42;9.83;;;6.23;;
1380;SDS011;684;48.342;10.096;2022-11-06T10:28:14;10.67;;;6.57;;
1380;SDS011;684;48.342;10.096;2022-11-06T10:30:55;9.23;;;6.20;;
1380;SDS011;684;48.342;10.096;2022-11-06T10:33:31;10.63;;;6.80;;
1380;SDS011;684;48.342;10.096;2022-11-06T10:36:11;10.30;;;6.53;;
1380;SDS011;684;48.342;10.096;2022-11-06T10:38:43;11.90;;;7.40;;
1380;SDS011;684;48.342;10.096;2022-11-06T10:41:14;10.20;;;7.10;;
1380;SDS011;684;48.342;10.096;2022-11-06T10:43:46;11.07;;;6.93;;
1380;SDS011;684;48.342;10.096;2022-11-06T10:46:18;10.13;;;7.03;;
1380;SDS011;684;48.342;10.096;2022-11-06T10:48:53;9.80;;;7.20;;
1380;SDS011;684;48.342;10.096;2022-11-06T10:51:40;8.37;;;5.43;;
1380;SDS011;684;48.342;10.096;2022-11-06T10:54:27;9.87;;;6.07;;
1380;SDS011;684;48.342;10.096;2022-11-06T10:57:13;12.20;;;7.03;;
1380;SDS011;684;48.342;10.096;2022-11-06T10:59:49;12.47;;;8.47;;
1380;SDS011;684;48.342;10.096;2022-11-06T11:02:20;17.17;;;11.40;;
1380;SDS011;684;48.342;10.096;2022-11-06T11:04:53;9.40;;;6.40;;
1380;SDS011;684;48.342;10.096;2022-11-06T11:07:20;9.23;;;5.97;;
1380;SDS011;684;48.342;10.096;2022-11-06T11:09:49;10.60;;;7.27;;
1380;SDS011;684;48.342;10.096;2022-11-06T11:12:19;13.30;;;10.00;;
1380;SDS011;684;48.342;10.096;2022-11-06T11:15:05;14.20;;;11.30;;
1380;SDS011;684;48.342;10.096;2022-11-06T11:17:37;11.83;;;8.63;;
1380;SDS011;684;48.342;10.096;2022-11-06T11:20:18;11.00;;;7.40;;
1380;SDS011;684;48.342;10.096;2022-11-06T11:23:05;9.03;;;6.10;;
1380;SDS011;684;48.342;10.096;2022-11-06T11:25:39;10.77;;;7.90;;
1380;SDS011;684;48.342;10.096;2022-11-06T11:28:11;11.50;;;7.60;;
1380;SDS011;684;48.342;10.096;2022-11-06T11:30:52;9.70;;;7.00;;
1380;SDS011;684;48.342;10.096;2022-11-06T11:33:20;9.60;;;6.20;;
1380;SDS011;684;48.342;10.096;2022-11-06T11:35:49;10.17;;;6.80;;
1380;SDS011;684;48.342;10.096;2022-11-06T11:38:16;9.10;;;6.67;;
1380;SDS011;684;48.342;10.096;2022-11-06T11:40:47;9.13;;;6.30;;
1380;SDS011;684;48.342;10.096;2022-11-06T11:43:22;10.53;;;6.50;;
1380;SDS011;684;48.342;10.096;2022-11-06T11:48:46;9.17;;;6.13;;
1380;SDS011;684;48.342;10.096;2022-11-06T11:51:23;8.80;;;6.47;;
1380;SDS011;684;48.342;10.096;2022-11-06T11:53:55;9.33;;;6.33;;
1380;SDS011;684;48.342;10.096;2022-11-06T11:56:26;9.90;;;6.67;;
1380;SDS011;684;48.342;10.096;2022-11-06T11:58:54;9.07;;;5.83;;
1380;SDS011;684;48.342;10.096;2022-11-06T12:01:29;10.17;;;6.70;;
1380;SDS011;684;48.342;10.096;2022-11-06T12:04:06;9.63;;;6.60;;
1380;SDS011;684;48.342;10.096;2022-11-06T12:06:48;9.00;;;5.90;;
1380;SDS011;684;48.342;10.096;2022-11-06T12:09:16;9.73;;;7.07;;
1380;SDS011;684;48.342;10.096;2022-11-06T12:11:45;9.10;;;5.87;;
1380;SDS011;684;48.342;10.096;2022-11-06T12:14:16;10.27;;;6.53;;
1380;SDS011;684;48.342;10.096;2022-11-06T12:16:50;9.00;;;6.60;;
1380;SDS011;684;48.342;10.096;2022-11-06T12:19:20;7.73;;;5.43;;
1380;SDS011;684;48.342;10.096;2022-11-06T12:21:50;9.10;;;6.07;;
1380;SDS011;684;48.342;10.096;2022-11-06T12:24:20;8.93;;;6.23;;
1380;SDS011;684;48.342;10.096;2022-11-06T12:26:50;8.47;;;5.47;;
1380;SDS011;684;48.342;10.096;2022-11-06T12:29:22;8.53;;;5.70;;
1380;SDS011;684;48.342;10.096;2022-11-06T12:31:54;12.17;;;6.27;;
1380;SDS011;684;48.342;10.096;2022-11-06T12:34:29;8.87;;;6.30;;
1380;SDS011;684;48.342;10.096;2022-11-06T12:37:03;10.97;;;7.50;;
1380;SDS011;684;48.342;10.096;2022-11-06T12:39:39;11.30;;;7.93;;
1380;SDS011;684;48.342;10.096;2022-11-06T12:42:11;10.60;;;7.27;;
1380;SDS011;684;48.342;10.096;2022-11-06T12:44:38;10.90;;;7.77;;
1380;SDS011;684;48.342;10.096;2022-11-06T12:47:06;10.47;;;7.60;;
1380;SDS011;684;48.342;10.096;2022-11-06T12:52:45;10.03;;;7.33;;
1380;SDS011;684;48.342;10.096;2022-11-06T12:55:22;11.33;;;7.90;;
1380;SDS011;684;48.342;10.096;2022-11-06T12:58:00;9.77;;;7.10;;
1380;SDS011;684;48.342;10.096;2022-11-06T13:00:38;11.50;;;7.10;;
1380;SDS011;684;48.342;10.096;2022-11-06T13:03:21;10.50;;;6.90;;
1380;SDS011;684;48.342;10.096;2022-11-06T13:06:20;8.90;;;6.70;;
1380;SDS011;684;48.342;10.096;2022-11-06T13:08:55;12.17;;;7.47;;
1380;SDS011;684;48.342;10.096;2022-11-06T13:11:29;9.17;;;6.60;;
1380;SDS011;684;48.342;10.096;2022-11-06T13:14:11;8.67;;;5.93;;
1380;SDS011;684;48.342;10.096;2022-11-06T13:16:44;8.53;;;5.70;;
1380;SDS011;684;48.342;10.096;2022-11-06T13:19:18;9.93;;;7.00;;
1380;SDS011;684;48.342;10.096;2022-11-06T13:21:57;9.13;;;6.27;;
1380;SDS011;684;48.342;10.096;2022-11-06T13:24:33;8.90;;;6.37;;
1380;SDS011;684;48.342;10.096;2022-11-06T13:27:04;9.70;;;6.37;;
1380;SDS011;684;48.342;10.096;2022-11-06T13:29:42;11.50;;;7.43;;
1380;SDS011;684;48.342;10.096;2022-11-06T13:32:10;10.10;;;7.10;;
1380;SDS011;684;48.342;10.096;2022-11-06T13:34:41;17.33;;;11.07;;
1380;SDS011;684;48.342;10.096;2022-11-06T13:37:12;10.23;;;6.77;;
1380;SDS011;684;48.342;10.096;2022-11-06T13:39:42;10.07;;;7.27;;
1380;SDS011;684;48.342;10.096;2022-11-06T13:42:18;10.33;;;7.53;;
1380;SDS011;684;48.342;10.096;2022-11-06T13:44:49;10.27;;;7.20;;
1380;SDS011;684;48.342;10.096;2022-11-06T13:47:18;11.07;;;7.67;;
1380;SDS011;684;48.342;10.096;2022-11-06T13:49:53;12.33;;;7.80;;
1380;SDS011;684;48.342;10.096;2022-11-06T13:52:28;10.57;;;7.50;;
1380;SDS011;684;48.342;10.096;2022-11-06T13:55:02;9.90;;;7.47;;
1380;SDS011;684;48.342;10.096;2022-11-06T13:57:41;11.47;;;8.67;;
1380;SDS011;684;48.342;10.096;2022-11-06T14:00:25;10.63;;;8.03;;
1380;SDS011;684;48.342;10.096;2022-11-06T14:03:17;12.67;;;8.60;;
1380;SDS011;684;48.342;10.096;2022-11-06T14:06:03;12.40;;;9.10;;
1380;SDS011;684;48.342;10.096;2022-11-06T14:08:33;14.10;;;9.10;;
1380;SDS011;684;48.342;10.096;2022-11-06T14:11:09;10.93;;;7.87;;
1380;SDS011;684;48.342;10.096;2022-11-06T14:13:38;10.70;;;7.80;;
1380;SDS011;684;48.342;10.096;2022-11-06T14:16:23;12.07;;;8.80;;
1380;SDS011;684;48.342;10.096;2022-11-06T14:18:58;10.50;;;8.17;;
1380;SDS011;684;48.342;10.096;2022-11-06T14:27:08;10.80;;;7.70;;
1380;SDS011;684;48.342;10.096;2022-11-06T14:29:52;12.30;;;8.80;;
1380;SDS011;684;48.342;10.096;2022-11-06T14:32:33;13.40;;;8.40;;
1380;SDS011;684;48.342;10.096;2022-11-06T14:38:29;11.20;;;8.13;;
1380;SDS011;684;48.342;10.096;2022-11-06T14:41:00;14.17;;;8.97;;
1380;SDS011;684;48.342;10.096;2022-11-06T14:43:47;12.73;;;9.00;;
1380;SDS011;684;48.342;10.096;2022-11-06T14:46:17;12.33;;;8.63;;
1380;SDS011;684;48.342;10.096;2022-11-06T14:48:47;12.10;;;8.60;;
1380;SDS011;684;48.342;10.096;2022-11-06T14:51:21;12.77;;;9.17;;
1380;SDS011;684;48.342;10.096;2022-11-06T14:53:52;11.93;;;8.13;;
1380;SDS011;684;48.342;10.096;2022-11-06T14:56:22;12.60;;;9.00;;
1380;SDS011;684;48.342;10.096;2022-11-06T14:58:52;13.37;;;9.53;;
1380;SDS011;684;48.342;10.096;2022-11-06T15:01:23;11.90;;;9.00;;
1380;SDS011;684;48.342;10.096;2022-11-06T15:03:53;13.87;;;10.10;;
1380;SDS011;684;48.342;10.096;2022-11-06T15:06:37;11.30;;;8.53;;
1380;SDS011;684;48.342;10.096;2022-11-06T15:09:10;14.00;;;9.63;;
1380;SDS011;684;48.342;10.096;2022-11-06T15:11:56;17.63;;;9.03;;
1380;SDS011;684;48.342;10.096;2022-11-06T15:17:24;12.67;;;9.00;;
1380;SDS011;684;48.342;10.096;2022-11-06T15:19:59;11.57;;;8.70;;
1380;SDS011;684;48.342;10.096;2022-11-06T15:22:50;10.67;;;8.03;;
1380;SDS011;684;48.342;10.096;2022-11-06T15:25:32;11.03;;;8.50;;
1380;SDS011;684;48.342;10.096;2022-11-06T15:28:00;13.20;;;9.27;;
1380;SDS011;684;48.342;10.096;2022-11-06T15:30:32;14.27;;;9.83;;
1380;SDS011;684;48.342;10.096;2022-11-06T15:33:08;16.83;;;11.87;;
1380;SDS011;684;48.342;10.096;2022-11-06T15:35:40;32.17;;;21.90;;
1380;SDS011;684;48.342;10.096;2022-11-06T15:38:09;40.27;;;26.57;;
1380;SDS011;684;48.342;10.096;2022-11-06T15:40:39;53.27;;;31.50;;
1380;SDS011;684;48.342;10.096;2022-11-06T15:46:06;23.33;;;14.33;;
1380;SDS011;684;48.342;10.096;2022-11-06T15:48:42;16.17;;;10.93;;